Time;durP1;ratioP1;P1;durP2;ratioP2;P2;SDS_P1;SDS_P2;PMS_P1;PMS_P2;Temp;Humidity;BMP_temperature;BMP_pressure;BME280_temperature;BME280_humidity;BME280_pressure;Samples;Min_cycle;Max_cycle;Signal;HPM_P1;HPM_P2
2022/07/03 03:35:20;;;;;;;1.65;1.02;;;21.20;65.40;;;;;;4735402;30;20060;-70
2022/07/03 03:37:49;;;;;;;3.22;1.17;;;21.10;65.30;;;;;;4738348;30;20476;-70
2022/07/03 03:40:17;;;;;;;1.90;0.80;;;21.00;65.00;;;;;;4738665;30;20448;-70
2022/07/03 03:42:43;;;;;;;4.75;1.45;;;20.90;64.80;;;;;;4738916;30;20087;-70
2022/07/03 03:45:09;;;;;;;2.67;1.30;;;20.90;64.90;;;;;;4737664;30;20068;-71
2022/07/03 03:47:35;;;;;;;2.20;0.90;;;20.90;64.90;;;;;;4723802;30;20357;-70
2022/07/03 03:50:02;;;;;;;1.95;1.30;;;20.80;64.80;;;;;;4738283;30;20059;-71
2022/07/03 03:52:29;;;;;;;1.70;1.17;;;20.80;64.80;;;;;;4738045;30;20055;-73
2022/07/03 03:54:55;;;;;;;2.97;1.35;;;20.80;64.80;;;;;;4737622;30;20132;-71
2022/07/03 03:57:23;;;;;;;2.95;1.60;;;20.80;64.80;;;;;;4738446;30;20126;-71
2022/07/03 03:59:49;;;;;;;2.55;1.10;;;20.70;64.70;;;;;;4738179;30;20060;-72
2022/07/03 04:02:16;;;;;;;2.30;1.52;;;20.70;64.70;;;;;;4738188;30;20052;-70
2022/07/03 04:04:41;;;;;;;2.67;1.40;;;20.70;64.90;;;;;;4738731;30;20052;-72
2022/07/03 04:07:07;;;;;;;2.55;1.30;;;20.70;64.80;;;;;;4738515;30;20423;-71
2022/07/03 04:09:34;;;;;;;2.35;1.10;;;20.60;64.70;;;;;;4738087;30;20060;-71
2022/07/03 04:12:00;;;;;;;2.95;1.30;;;20.60;64.80;;;;;;4738022;30;20052;-72
2022/07/03 04:14:26;;;;;;;1.77;1.35;;;20.60;64.90;;;;;;4738053;30;20139;-72
2022/07/03 04:16:52;;;;;;;2.88;1.00;;;20.60;64.90;;;;;;4738116;30;20405;-71
2022/07/03 04:19:17;;;;;;;3.65;1.17;;;20.60;64.80;;;;;;4738008;30;20060;-70
2022/07/03 04:21:43;;;;;;;2.03;1.23;;;20.60;64.70;;;;;;4737527;30;20060;-71
2022/07/03 04:24:09;;;;;;;2.72;1.45;;;20.60;64.70;;;;;;4737446;30;20076;-71
2022/07/03 04:26:35;;;;;;;1.80;1.27;;;20.60;64.60;;;;;;4737949;30;20053;-71
2022/07/03 04:29:00;;;;;;;2.78;1.63;;;20.60;64.60;;;;;;4737301;30;20064;-70
2022/07/03 04:31:26;;;;;;;2.58;0.95;;;20.60;64.50;;;;;;4737846;30;20099;-71
2022/07/03 04:33:52;;;;;;;4.65;1.65;;;20.60;64.50;;;;;;4737120;30;20057;-71
2022/07/03 04:36:18;;;;;;;2.75;1.38;;;20.60;64.40;;;;;;4750513;30;20052;-74
2022/07/03 04:38:44;;;;;;;6.97;1.83;;;20.60;64.20;;;;;;4752789;30;20101;-71
2022/07/03 04:41:10;;;;;;;3.15;2.05;;;20.60;63.90;;;;;;4755098;30;20453;-71
2022/07/03 04:43:36;;;;;;;3.17;1.90;;;20.60;63.70;;;;;;4755167;30;20114;-71
2022/07/03 04:46:02;;;;;;;4.22;2.28;;;20.60;63.70;;;;;;4740190;30;20509;-73
2022/07/03 04:48:29;;;;;;;3.38;2.47;;;20.50;63.60;;;;;;4737574;30;20551;-76
2022/07/03 04:50:55;;;;;;;2.72;1.85;;;20.40;63.80;;;;;;4737210;30;20130;-73
2022/07/03 04:53:20;;;;;;;3.50;2.13;;;20.30;64.20;;;;;;4737475;30;20048;-73
2022/07/03 04:55:46;;;;;;;3.55;2.38;;;20.30;64.50;;;;;;4734064;30;20483;-74
2022/07/03 04:58:12;;;;;;;4.78;3.17;;;20.20;64.50;;;;;;4752399;30;20048;-74
2022/07/03 05:00:40;;;;;;;3.20;2.38;;;20.20;64.50;;;;;;4737227;30;20051;-73
2022/07/03 05:03:06;;;;;;;3.75;2.60;;;20.10;64.60;;;;;;4737299;30;20424;-72
2022/07/03 05:05:32;;;;;;;4.07;2.30;;;20.10;64.70;;;;;;4736932;30;20060;-73
2022/07/03 05:07:58;;;;;;;4.38;2.33;;;20.10;64.90;;;;;;4737713;30;20205;-72
2022/07/03 05:10:24;;;;;;;3.58;2.30;;;20.10;65.10;;;;;;4737159;30;20369;-72
2022/07/03 05:12:50;;;;;;;5.20;2.40;;;20.00;65.20;;;;;;4737100;30;20052;-73
2022/07/03 05:15:16;;;;;;;2.85;2.03;;;20.00;65.20;;;;;;4737144;30;20083;-73
2022/07/03 05:17:41;;;;;;;2.67;2.20;;;20.00;65.20;;;;;;4736755;30;20056;-73
2022/07/03 05:22:57;;;;;;;4.70;2.20;;;20.00;65.50;;;;;;4736749;30;20060;-74
2022/07/03 05:25:23;;;;;;;3.00;1.80;;;20.00;65.50;;;;;;4737132;30;20072;-73
2022/07/03 05:27:52;;;;;;;4.10;1.58;;;20.00;65.40;;;;;;4736916;30;20465;-74
2022/07/03 05:30:20;;;;;;;3.80;1.15;;;20.00;65.30;;;;;;4736948;30;20123;-75
2022/07/03 05:32:46;;;;;;;2.78;1.52;;;20.00;65.40;;;;;;4736569;30;20143;-73
2022/07/03 05:35:12;;;;;;;4.03;1.42;;;20.00;65.50;;;;;;4718241;30;20143;-73
2022/07/03 05:37:38;;;;;;;4.25;1.50;;;19.90;65.60;;;;;;4719560;30;20420;-73
2022/07/03 05:40:04;;;;;;;4.63;1.42;;;20.00;65.70;;;;;;4719213;30;20053;-71
2022/07/03 05:42:30;;;;;;;9.65;1.67;;;20.00;65.70;;;;;;4719405;30;20064;-70
2022/07/03 05:44:56;;;;;;;3.92;1.35;;;20.00;65.80;;;;;;4719202;30;20061;-70
2022/07/03 05:47:22;;;;;;;3.55;0.82;;;20.00;65.90;;;;;;4719057;30;20124;-72
2022/07/03 05:49:47;;;;;;;4.18;0.90;;;20.10;65.90;;;;;;4719866;30;20053;-71
2022/07/03 05:52:14;;;;;;;6.05;0.80;;;20.10;65.80;;;;;;4722988;30;20453;-71
2022/07/03 05:54:39;;;;;;;2.70;1.08;;;20.10;65.70;;;;;;4721839;30;20057;-71
2022/07/03 05:57:05;;;;;;;4.10;0.93;;;20.20;65.80;;;;;;4722677;30;20052;-72
2022/07/03 05:59:31;;;;;;;4.05;0.82;;;20.30;65.90;;;;;;4722645;30;20462;-71
2022/07/03 06:01:56;;;;;;;3.08;0.60;;;20.30;65.90;;;;;;4722650;30;20069;-71
2022/07/03 06:04:22;;;;;;;2.30;0.60;;;20.30;66.00;;;;;;4722773;30;20357;-71
2022/07/03 06:06:48;;;;;;;3.55;0.80;;;20.40;65.90;;;;;;4722119;30;20060;-71
2022/07/03 06:09:14;;;;;;;1.70;0.70;;;20.40;66.00;;;;;;4722479;30;20057;-71
2022/07/03 06:11:39;;;;;;;3.00;0.60;;;20.40;66.00;;;;;;4722006;30;20056;-72
2022/07/03 06:14:05;;;;;;;1.98;0.68;;;20.50;66.00;;;;;;4722572;30;20131;-71
2022/07/03 06:16:31;;;;;;;1.33;0.60;;;20.50;66.00;;;;;;4722761;30;20480;-72
2022/07/03 06:18:56;;;;;;;2.40;0.57;;;20.50;65.90;;;;;;4722062;30;20466;-72
2022/07/03 06:21:22;;;;;;;4.13;0.73;;;20.60;65.90;;;;;;4722583;30;20045;-71
2022/07/03 06:23:48;;;;;;;1.90;0.60;;;20.60;65.80;;;;;;4722401;30;20061;-73
2022/07/03 06:26:14;;;;;;;7.32;1.20;;;20.60;66.00;;;;;;4722505;30;20061;-72
2022/07/03 06:28:41;;;;;;;5.00;0.80;;;20.60;66.10;;;;;;4722207;30;20390;-72
2022/07/03 06:31:06;;;;;;;5.15;0.60;;;20.70;66.30;;;;;;4721750;30;20057;-80
2022/07/03 06:33:32;;;;;;;3.25;0.90;;;20.70;66.50;;;;;;4705716;30;20061;-83
2022/07/03 06:35:58;;;;;;;4.88;1.20;;;20.80;67.10;;;;;;4720959;30;20104;-76
2022/07/03 06:38:24;;;;;;;3.22;0.60;;;20.80;67.00;;;;;;4722041;30;20142;-77
2022/07/03 06:40:49;;;;;;;3.75;0.73;;;20.80;67.20;;;;;;4721947;30;20049;-78
2022/07/03 06:43:15;;;;;;;4.07;0.70;;;20.80;66.80;;;;;;4721540;30;20045;-77
2022/07/03 06:45:41;;;;;;;2.20;0.30;;;20.90;66.50;;;;;;4722537;30;20076;-76
2022/07/03 06:48:06;;;;;;;3.25;0.50;;;20.80;66.10;;;;;;4721701;30;20140;-75
2022/07/03 06:50:32;;;;;;;6.88;0.88;;;20.80;65.50;;;;;;4721713;30;20079;-75
2022/07/03 06:52:58;;;;;;;5.32;0.80;;;20.80;65.60;;;;;;4721441;30;20049;-74
2022/07/03 06:55:24;;;;;;;3.75;0.60;;;20.80;65.30;;;;;;4722405;30;20053;-73
2022/07/03 06:57:49;;;;;;;5.18;0.60;;;20.80;65.50;;;;;;4721768;30;20044;-73
2022/07/03 07:00:15;;;;;;;7.32;0.70;;;20.80;65.50;;;;;;4721389;30;20072;-74
2022/07/03 07:02:41;;;;;;;1.92;0.52;;;20.80;65.80;;;;;;4720348;30;20154;-74
2022/07/03 07:05:07;;;;;;;5.85;0.65;;;20.80;66.10;;;;;;4721568;30;20124;-75
2022/07/03 07:07:33;;;;;;;2.30;0.65;;;20.90;65.90;;;;;;4721277;30;20053;-75
2022/07/03 07:09:59;;;;;;;5.72;0.57;;;20.90;65.50;;;;;;4722162;30;20048;-75
2022/07/03 07:12:25;;;;;;;4.18;0.93;;;20.90;65.40;;;;;;4720541;30;20110;-74
2022/07/03 07:14:51;;;;;;;6.25;1.00;;;21.00;64.60;;;;;;4720260;30;20057;-74
2022/07/03 07:17:17;;;;;;;3.97;0.60;;;21.00;64.50;;;;;;4728816;30;20069;-73
2022/07/03 07:19:42;;;;;;;2.88;0.40;;;21.00;64.30;;;;;;4738987;30;20064;-74
2022/07/03 07:22:08;;;;;;;4.22;0.98;;;21.00;63.60;;;;;;4728254;30;20343;-71
2022/07/03 07:24:34;;;;;;;4.07;0.50;;;21.10;64.00;;;;;;4721309;30;20049;-71
2022/07/03 07:27:00;;;;;;;2.10;0.63;;;21.10;64.40;;;;;;4721233;30;20057;-71
2022/07/03 07:29:26;;;;;;;4.25;0.65;;;21.10;64.70;;;;;;4720780;30;20063;-71
2022/07/03 07:31:51;;;;;;;2.65;0.43;;;21.20;64.90;;;;;;4721062;30;20068;-71
2022/07/03 07:34:17;;;;;;;3.20;0.50;;;21.20;64.90;;;;;;4730004;30;20053;-71
2022/07/03 07:36:43;;;;;;;2.40;0.60;;;21.20;65.00;;;;;;4738518;30;20064;-71
2022/07/03 07:39:09;;;;;;;3.83;0.47;;;21.30;65.10;;;;;;4738594;30;20064;-71
2022/07/03 07:41:36;;;;;;;4.13;0.60;;;21.30;65.20;;;;;;4738079;30;20053;-71
2022/07/03 07:44:02;;;;;;;5.63;0.70;;;21.30;65.20;;;;;;4738485;30;20127;-72
2022/07/03 07:46:28;;;;;;;3.60;0.70;;;21.40;65.60;;;;;;4738020;30;20191;-72
2022/07/03 07:48:54;;;;;;;5.60;0.80;;;21.40;65.60;;;;;;4738341;30;20056;-72
2022/07/03 07:51:20;;;;;;;6.55;0.60;;;21.40;65.90;;;;;;4737508;30;20449;-76
2022/07/03 07:53:46;;;;;;;17.98;1.52;;;21.40;65.80;;;;;;4738322;30;20063;-73
2022/07/03 07:56:11;;;;;;;6.43;0.73;;;21.50;65.70;;;;;;4722695;30;20049;-71
2022/07/03 07:58:37;;;;;;;5.93;0.88;;;21.50;65.80;;;;;;4737751;30;20044;-73
2022/07/03 08:06:32;;;;;;;11.27;1.00;;;21.60;66.00;;;;;;4737900;30;20064;-73
2022/07/03 08:08:58;;;;;;;8.05;0.80;;;21.60;66.00;;;;;;4737765;30;20067;-72
2022/07/03 08:11:24;;;;;;;5.72;0.77;;;21.60;66.00;;;;;;4737516;30;20064;-72
2022/07/03 08:13:50;;;;;;;10.85;0.75;;;21.70;66.10;;;;;;4737600;30;20066;-73
2022/07/03 08:16:17;;;;;;;11.40;0.93;;;21.60;65.80;;;;;;4737829;30;20052;-74
2022/07/03 08:18:43;;;;;;;8.95;0.80;;;21.70;66.00;;;;;;4737753;30;20059;-71
2022/07/03 08:21:09;;;;;;;9.52;1.33;;;21.70;66.10;;;;;;4737349;30;20045;-72
2022/07/03 08:23:34;;;;;;;3.55;0.52;;;21.70;66.30;;;;;;4737923;30;20368;-71
2022/07/03 08:26:00;;;;;;;7.32;1.23;;;21.70;66.30;;;;;;4737981;30;20084;-71
2022/07/03 08:28:27;;;;;;;6.55;1.00;;;21.70;66.40;;;;;;4737829;30;20389;-71
2022/07/03 08:30:52;;;;;;;10.45;1.17;;;21.70;66.50;;;;;;4737562;30;20103;-70
2022/07/03 08:33:18;;;;;;;10.05;1.02;;;21.70;66.50;;;;;;4737321;30;20080;-73
2022/07/03 08:35:44;;;;;;;7.35;0.60;;;21.80;66.70;;;;;;4737391;30;20064;-73
2022/07/03 08:38:10;;;;;;;10.50;1.40;;;21.80;66.60;;;;;;4737538;30;20053;-71
2022/07/03 08:40:36;;;;;;;5.88;0.82;;;21.80;66.50;;;;;;4737421;30;20045;-71
2022/07/03 08:43:03;;;;;;;5.32;1.10;;;21.80;66.60;;;;;;4737568;30;20052;-71
2022/07/03 08:45:30;;;;;;;9.93;1.80;;;21.80;66.60;;;;;;4737697;30;20056;-71
2022/07/03 08:47:57;;;;;;;10.30;1.10;;;21.90;66.70;;;;;;4737262;30;20056;-70
2022/07/03 08:50:23;;;;;;;6.15;0.73;;;21.90;66.60;;;;;;4736942;30;20049;-72
2022/07/03 08:52:49;;;;;;;4.82;0.70;;;21.90;66.70;;;;;;4736612;30;20063;-74
2022/07/03 08:55:17;;;;;;;5.68;0.80;;;21.90;66.30;;;;;;4737197;30;20052;-75
2022/07/03 08:57:44;;;;;;;6.13;1.00;;;21.90;65.30;;;;;;4737154;30;20477;-76
2022/07/03 09:00:13;;;;;;;6.40;1.23;;;21.80;64.90;;;;;;4736931;30;20060;-72
2022/07/03 09:02:43;;;;;;;6.88;1.00;;;21.90;65.10;;;;;;4737503;30;20060;-71
2022/07/03 09:05:13;;;;;;;6.20;0.85;;;21.90;65.20;;;;;;4737286;30;20357;-71
2022/07/03 09:07:42;;;;;;;7.25;0.98;;;21.90;65.40;;;;;;4737082;30;20060;-72
2022/07/03 09:10:10;;;;;;;5.82;0.98;;;21.90;65.40;;;;;;4719457;30;20057;-72
2022/07/03 09:12:38;;;;;;;3.47;0.80;;;22.00;65.50;;;;;;4719366;30;20446;-75
2022/07/03 09:15:05;;;;;;;7.57;1.08;;;22.00;65.50;;;;;;4719707;30;20057;-76
2022/07/03 09:17:31;;;;;;;6.82;1.05;;;21.90;64.90;;;;;;4718639;30;20079;-71
2022/07/03 09:20:05;;;;;;;5.07;1.15;;;22.00;64.30;;;;;;4726108;30;20052;-72
2022/07/03 09:22:34;;;;;;;7.93;1.30;;;22.00;64.50;;;;;;4735460;30;20118;-72
2022/07/03 09:25:11;;;;;;;5.03;1.05;;;22.00;64.80;;;;;;4736466;30;20096;-72
2022/07/03 09:27:39;;;;;;;5.72;1.20;;;22.00;65.00;;;;;;4736658;30;20057;-72
2022/07/03 09:30:10;;;;;;;7.97;1.20;;;22.00;65.30;;;;;;4736416;30;20048;-72
2022/07/03 09:32:38;;;;;;;4.25;1.15;;;22.00;65.80;;;;;;4736220;30;20098;-72
2022/07/03 09:35:23;;;;;;;9.43;1.27;;;22.10;65.90;;;;;;4736569;30;20072;-72
2022/07/03 09:37:54;;;;;;;5.78;1.00;;;22.10;66.10;;;;;;4736568;30;20052;-72
2022/07/03 09:40:21;;;;;;;8.23;0.88;;;22.10;66.20;;;;;;4736506;30;20488;-74
2022/07/03 09:43:05;;;;;;;4.30;0.93;;;22.10;66.30;;;;;;4735957;30;20165;-78
2022/07/03 09:45:53;;;;;;;7.13;1.23;;;22.10;66.20;;;;;;4736285;30;20060;-75
2022/07/03 09:48:28;;;;;;;5.90;1.02;;;22.10;65.90;;;;;;4736162;30;20071;-72
2022/07/03 09:51:11;;;;;;;5.40;1.38;;;22.10;65.70;;;;;;4736440;30;20210;-72
2022/07/03 09:54:14;;;;;;;9.10;1.33;;;22.00;66.30;;;;;;4735990;30;20088;-72
2022/07/03 09:56:40;;;;;;;5.55;1.13;;;22.00;66.40;;;;;;4708779;30;20060;-72
2022/07/03 09:59:10;;;;;;;6.18;1.20;;;22.00;66.70;;;;;;4737420;30;20133;-72
2022/07/03 10:01:44;;;;;;;9.63;2.25;;;22.10;66.80;;;;;;4735867;30;20146;-71
2022/07/03 10:04:18;;;;;;;8.27;1.15;;;22.10;67.20;;;;;;4736285;30;20045;-71
2022/07/03 10:06:51;;;;;;;7.13;1.48;;;22.00;67.40;;;;;;4720996;30;20060;-71
2022/07/03 10:09:19;;;;;;;4.63;1.30;;;22.10;67.70;;;;;;4736551;30;20107;-71
2022/07/03 10:11:45;;;;;;;5.75;1.70;;;22.10;67.80;;;;;;4736138;30;20394;-71
2022/07/03 10:14:15;;;;;;;7.75;2.90;;;22.10;67.20;;;;;;4736303;30;20440;-74
2022/07/03 10:16:42;;;;;;;7.60;2.50;;;22.20;67.20;;;;;;4736704;30;20052;-74
2022/07/03 10:19:21;;;;;;;7.82;2.72;;;22.20;67.00;;;;;;4721195;30;20128;-74
2022/07/03 10:21:52;;;;;;;8.48;2.85;;;22.20;67.10;;;;;;4720308;30;20060;-75
2022/07/03 10:24:18;;;;;;;7.05;2.50;;;22.20;67.10;;;;;;4736381;30;20052;-72
2022/07/03 10:26:46;;;;;;;11.65;2.40;;;22.20;67.00;;;;;;4736961;30;20063;-72
2022/07/03 10:29:15;;;;;;;12.23;2.35;;;22.10;68.00;;;;;;4735799;30;20473;-74
2022/07/03 10:31:49;;;;;;;14.93;2.53;;;22.30;70.00;;;;;;4721040;30;20496;-84
2022/07/03 10:34:25;;;;;;;10.15;2.08;;;22.20;68.10;;;;;;4735830;30;20373;-79
2022/07/03 10:37:01;;;;;;;10.50;2.40;;;22.30;67.50;;;;;;4738063;30;20048;-76
2022/07/03 10:39:36;;;;;;;11.73;2.70;;;22.20;67.60;;;;;;4739123;30;20044;-75
2022/07/03 10:45:09;;;;;;;7.07;1.60;;;22.20;67.80;;;;;;4739342;30;20056;-75
2022/07/03 10:47:39;;;;;;;8.20;1.85;;;22.20;67.30;;;;;;4739211;30;21363;-73
2022/07/03 10:50:13;;;;;;;12.23;1.92;;;22.10;67.10;;;;;;4738144;30;20512;-70
2022/07/03 10:52:41;;;;;;;11.27;1.98;;;22.10;67.10;;;;;;4739496;30;20140;-69
2022/07/03 10:55:08;;;;;;;7.20;1.70;;;22.10;67.40;;;;;;4739167;30;20091;-70
2022/07/03 10:57:35;;;;;;;11.10;1.83;;;22.20;68.20;;;;;;4739161;30;20095;-71
2022/07/03 11:00:10;;;;;;;7.28;2.20;;;22.20;68.50;;;;;;4739633;30;20059;-70
2022/07/03 11:02:41;;;;;;;5.80;1.58;;;22.20;68.70;;;;;;4738827;30;20053;-70
2022/07/03 11:05:10;;;;;;;6.18;1.38;;;22.20;68.70;;;;;;4739530;30;20114;-70
2022/07/03 11:07:48;;;;;;;5.32;1.52;;;22.20;69.00;;;;;;4739082;30;20052;-70
2022/07/03 11:10:16;;;;;;;5.07;1.50;;;22.20;68.80;;;;;;4738954;30;20053;-70
2022/07/03 11:13:04;;;;;;;4.00;1.42;;;22.20;68.80;;;;;;4737400;30;20061;-70
2022/07/03 11:15:48;;;;;;;4.80;1.52;;;22.20;68.60;;;;;;4738024;30;20460;-70
2022/07/03 11:18:23;;;;;;;4.57;1.52;;;22.20;68.60;;;;;;4738900;30;20056;-70
2022/07/03 11:20:51;;;;;;;5.00;1.42;;;22.20;68.50;;;;;;4738291;30;20056;-70
2022/07/03 11:23:28;;;;;;;5.97;1.58;;;22.20;68.50;;;;;;4737661;30;20055;-70
2022/07/03 11:26:00;;;;;;;4.55;1.40;;;22.20;68.40;;;;;;4738625;30;20061;-71
2022/07/03 11:28:31;;;;;;;3.88;1.33;;;22.30;68.40;;;;;;4738680;30;20053;-70
2022/07/03 11:31:18;;;;;;;5.75;1.85;;;22.30;68.40;;;;;;4738879;30;20056;-71
2022/07/03 11:33:44;;;;;;;3.55;0.95;;;22.30;67.60;;;;;;4737721;30;20068;-72
2022/07/03 11:36:31;;;;;;;2.53;0.85;;;22.20;66.90;;;;;;4738745;30;20041;-71
2022/07/03 11:39:04;;;;;;;4.15;1.30;;;22.20;66.10;;;;;;4737754;30;20144;-72
2022/07/03 11:41:35;;;;;;;5.97;1.60;;;22.20;65.80;;;;;;4738764;30;20061;-72
2022/07/03 11:44:03;;;;;;;7.35;0.85;;;22.20;66.10;;;;;;4737051;30;20053;-76
2022/07/03 11:46:31;;;;;;;9.18;1.42;;;22.20;65.80;;;;;;4738330;30;20049;-73
2022/07/03 11:49:08;;;;;;;10.60;1.83;;;22.20;65.80;;;;;;4737827;30;20064;-72
2022/07/03 11:51:36;;;;;;;5.88;1.15;;;22.20;66.00;;;;;;4722935;30;20453;-73
2022/07/03 11:54:03;;;;;;;6.03;1.13;;;22.20;66.10;;;;;;4722356;30;20057;-73
2022/07/03 11:56:29;;;;;;;6.25;1.23;;;22.20;66.20;;;;;;4722600;30;20056;-72
2022/07/03 11:58:57;;;;;;;7.20;1.20;;;22.20;65.90;;;;;;4737956;30;20056;-73
2022/07/03 12:01:26;;;;;;;4.90;0.90;;;22.20;65.80;;;;;;4737538;30;20061;-75
2022/07/03 12:04:17;;;;;;;4.05;0.90;;;22.20;65.60;;;;;;4737948;30;20465;-75
2022/07/03 12:06:50;;;;;;;3.42;0.90;;;22.20;65.80;;;;;;4738148;30;20070;-75
2022/07/03 12:09:17;;;;;;;;;;;22.10;66.60;;;;;;4738644;30;20066;-73
2022/07/03 12:12:08;;;;;;;2.25;0.68;;;22.20;66.70;;;;;;4737780;30;20255;-73
2022/07/03 12:14:37;;;;;;;2.67;0.77;;;22.20;66.80;;;;;;4737771;30;20058;-75
2022/07/03 12:17:05;;;;;;;2.90;0.70;;;22.10;66.70;;;;;;4737309;30;20056;-75
2022/07/03 12:19:30;;;;;;;3.72;0.63;;;22.20;66.70;;;;;;4737182;30;20134;-74
2022/07/03 12:21:56;;;;;;;2.55;0.68;;;22.20;67.00;;;;;;4737781;30;20056;-74
2022/07/03 12:24:23;;;;;;;3.60;0.82;;;22.20;67.20;;;;;;4737190;30;20060;-75
2022/07/03 12:26:49;;;;;;;6.57;1.30;;;22.20;67.00;;;;;;4737316;30;20049;-72
2022/07/03 12:29:15;;;;;;;3.00;0.73;;;22.20;66.90;;;;;;4737293;30;20049;-72
2022/07/03 12:31:48;;;;;;;3.70;0.70;;;22.20;66.90;;;;;;4737421;30;20056;-74
2022/07/03 12:34:17;;;;;;;4.70;1.00;;;22.20;66.90;;;;;;4734510;30;20061;-74
2022/07/03 12:36:59;;;;;;;2.78;0.63;;;22.30;67.00;;;;;;4735730;30;20083;-72
2022/07/03 12:39:45;;;;;;;7.03;1.52;;;22.20;67.00;;;;;;4720636;30;20056;-72
2022/07/03 12:42:29;;;;;;;3.58;0.70;;;22.30;67.30;;;;;;4737453;30;20088;-73
2022/07/03 12:44:55;;;;;;;;;;;22.30;67.30;;;;;;4737831;30;20057;-71
2022/07/03 12:47:21;;;;;;;3.35;0.90;;;22.30;67.20;;;;;;4736041;30;19957;-73
2022/07/03 12:49:54;;;;;;;4.80;1.02;;;22.20;67.30;;;;;;4737161;30;20402;-72
2022/07/03 12:52:20;;;;;;;3.78;0.65;;;22.30;67.70;;;;;;4737374;30;20059;-73
2022/07/03 17:21:45;;;;;;;3.90;0.57;;;22.30;67.00;;;;;;4798303;24;20067;-74
2022/07/03 17:24:11;;;;;;;2.90;0.60;;;22.30;63.50;;;;;;4772144;30;20386;-77
2022/07/03 17:26:43;;;;;;;1.95;0.32;;;22.20;62.90;;;;;;4778118;30;20121;-76
2022/07/03 17:29:19;;;;;;;3.47;0.50;;;22.00;61.50;;;;;;4764306;30;20044;-77
2022/07/03 17:31:45;;;;;;;2.63;0.68;;;21.90;61.20;;;;;;4771840;30;20064;-77
2022/07/03 17:34:14;;;;;;;1.75;0.45;;;21.80;61.30;;;;;;4772026;30;20059;-77
2022/07/03 17:36:43;;;;;;;3.10;0.52;;;21.70;61.80;;;;;;4778891;30;20057;-76
2022/07/03 17:39:09;;;;;;;2.47;0.30;;;21.70;62.20;;;;;;4774310;30;20455;-78
2022/07/03 17:41:37;;;;;;;3.47;0.52;;;21.70;62.60;;;;;;4779734;30;20057;-76
2022/07/03 17:44:04;;;;;;;3.30;0.55;;;21.70;62.50;;;;;;4771493;30;20056;-77
2022/07/03 17:46:31;;;;;;;2.65;0.50;;;21.80;62.60;;;;;;4755907;30;20109;-79
2022/07/03 17:48:56;;;;;;;3.03;0.50;;;21.80;62.50;;;;;;4756820;30;20055;-75
2022/07/03 17:51:26;;;;;;;2.20;0.55;;;21.80;61.90;;;;;;4772449;30;20357;-77
2022/07/03 17:53:53;;;;;;;3.25;0.50;;;21.80;61.60;;;;;;4772028;30;20368;-80
2022/07/03 17:56:22;;;;;;;5.32;0.40;;;21.80;61.90;;;;;;4771522;30;20046;-77
2022/07/03 17:58:49;;;;;;;2.83;0.75;;;21.80;61.70;;;;;;4755725;30;20375;-76
2022/07/03 18:01:17;;;;;;;4.57;0.50;;;21.80;61.70;;;;;;4756660;30;20047;-77
2022/07/03 18:03:43;;;;;;;2.05;0.50;;;21.80;61.60;;;;;;4769127;30;20129;-78
2022/07/03 18:06:16;;;;;;;3.28;0.63;;;21.80;61.10;;;;;;4771971;30;20051;-78
2022/07/03 18:09:05;;;;;;;2.78;0.52;;;21.80;60.90;;;;;;4755880;30;20070;-75
2022/07/03 18:39:44;;;;;;;2.22;0.40;;;21.20;60.30;;;;;;4717283;30;20061;-72
2022/07/03 18:42:11;;;;;;;1.20;0.28;;;21.10;59.90;;;;;;4719171;30;20115;-72
2022/07/03 18:44:38;;;;;;;2.03;0.43;;;21.10;59.50;;;;;;4718662;30;20049;-73
2022/07/03 18:47:05;;;;;;;5.32;0.50;;;21.10;59.10;;;;;;4717355;30;20065;-75
2022/07/03 18:49:31;;;;;;;1.40;0.35;;;21.00;59.10;;;;;;4717214;30;20049;-75
2022/07/03 18:52:35;;;;;;;2.05;0.65;;;21.00;58.80;;;;;;4719047;30;20060;-74
2022/07/03 18:55:03;;;;;;;;;;;20.90;59.00;;;;;;4718871;30;20100;-75
2022/07/03 18:57:38;;;;;;;2.45;0.28;;;20.80;59.50;;;;;;4718902;30;19933;-75
2022/07/03 19:00:08;;;;;;;0.75;0.25;;;20.80;59.60;;;;;;4722143;30;20088;-75
2022/07/03 19:02:49;;;;;;;3.03;0.50;;;20.80;59.60;;;;;;4720710;30;20069;-75
2022/07/03 19:05:15;;;;;;;1.73;0.30;;;20.80;59.80;;;;;;4724743;30;20049;-75
2022/07/03 19:08:04;;;;;;;1.50;0.50;;;20.80;60.00;;;;;;4738885;30;20053;-75
2022/07/03 19:10:32;;;;;;;2.08;0.68;;;20.70;60.00;;;;;;4753197;30;20435;-76
2022/07/03 19:13:06;;;;;;;1.92;0.50;;;20.60;60.10;;;;;;4739129;30;20064;-75
2022/07/03 19:15:42;;;;;;;3.13;0.50;;;20.60;60.10;;;;;;4737990;30;20070;-76
2022/07/03 19:18:08;;;;;;;1.58;0.30;;;20.60;60.20;;;;;;4738359;30;20416;-74
2022/07/03 19:20:34;;;;;;;1.63;0.50;;;20.60;60.20;;;;;;4738253;30;20139;-74
2022/07/03 19:23:01;;;;;;;3.35;0.50;;;20.60;60.50;;;;;;4739061;30;20093;-75
2022/07/03 19:25:27;;;;;;;3.25;0.45;;;20.60;60.50;;;;;;4725414;30;20056;-75
2022/07/03 19:27:57;;;;;;;1.90;0.40;;;20.60;60.50;;;;;;4720972;30;20450;-78
2022/07/03 19:30:24;;;;;;;1.83;0.40;;;20.50;60.40;;;;;;4721417;30;20045;-76
2022/07/03 19:32:51;;;;;;;1.17;0.47;;;20.50;60.50;;;;;;4720731;30;20136;-76
2022/07/03 19:35:18;;;;;;;2.50;0.52;;;20.50;60.70;;;;;;4720498;30;20065;-74
2022/07/03 19:37:44;;;;;;;1.23;0.52;;;20.50;60.90;;;;;;4725204;30;20056;-75
2022/07/03 19:40:11;;;;;;;2.78;0.32;;;20.50;61.00;;;;;;4738068;30;20136;-76
2022/07/03 19:42:41;;;;;;;4.75;0.77;;;20.40;60.80;;;;;;4737552;30;20541;-75
2022/07/03 19:45:18;;;;;;;2.63;0.60;;;20.40;60.90;;;;;;4738786;30;20056;-76
2022/07/03 19:47:45;;;;;;;2.05;0.40;;;20.40;61.40;;;;;;4737430;30;20053;-76
2022/07/03 19:50:11;;;;;;;3.70;0.50;;;20.30;61.50;;;;;;4737372;30;20060;-77
2022/07/03 19:52:38;;;;;;;1.98;0.43;;;20.30;61.70;;;;;;4738631;30;20047;-76
2022/07/03 19:55:06;;;;;;;1.90;0.40;;;20.30;61.70;;;;;;4738013;30;20057;-77
2022/07/03 19:57:35;;;;;;;2.72;0.77;;;20.30;61.60;;;;;;4738328;30;20060;-77
2022/07/03 20:00:05;;;;;;;2.55;0.50;;;20.30;61.60;;;;;;4738042;30;20465;-74
2022/07/03 20:02:31;;;;;;;1.95;0.50;;;20.30;61.70;;;;;;4738348;30;20058;-76
2022/07/03 20:04:57;;;;;;;2.47;0.52;;;20.30;61.70;;;;;;4751790;30;20056;-73
2022/07/03 20:07:23;;;;;;;2.10;0.70;;;20.20;61.70;;;;;;4738395;30;20052;-77
2022/07/03 20:09:49;;;;;;;1.55;0.30;;;20.20;61.70;;;;;;4737320;30;20169;-76
2022/07/03 20:12:15;;;;;;;1.60;0.50;;;20.20;61.60;;;;;;4725640;30;20140;-75
2022/07/03 20:14:43;;;;;;;1.85;0.70;;;20.20;61.60;;;;;;4738276;30;20057;-74
2022/07/03 20:17:10;;;;;;;3.05;0.52;;;20.10;61.80;;;;;;4738333;30;20056;-75
2022/07/03 20:19:36;;;;;;;1.55;0.60;;;20.10;61.90;;;;;;4738312;30;20096;-76
2022/07/03 20:22:02;;;;;;;4.15;0.70;;;20.10;61.90;;;;;;4738017;30;20092;-74
2022/07/03 20:24:37;;;;;;;3.30;0.40;;;20.00;62.00;;;;;;4737151;30;20139;-76
2022/07/03 20:27:09;;;;;;;3.38;0.60;;;20.00;62.00;;;;;;4736844;30;20059;-75
2022/07/03 20:29:38;;;;;;;2.70;0.40;;;20.00;62.40;;;;;;4738156;30;20416;-75
